Time;durP1;ratioP1;P1;durP2;ratioP2;P2;SDS_P1;SDS_P2;PMS_P1;PMS_P2;Temp;Humidity;BMP_temperature;BMP_pressure;BME280_temperature;BME280_humidity;BME280_pressure;Samples;Min_cycle;Max_cycle;Signal;HPM_P1;HPM_P2
2023/05/09 00:00:15;;;;;;;0.40;0.40;;;;;;;;;;5099708;28;20197;-83
2023/05/09 00:02:44;;;;;;;0.37;0.37;;;;;;;;;;5099252;28;20217;-82
2023/05/09 00:05:10;;;;;;;0.40;0.40;;;;;;;;;;5099560;28;20208;-83
2023/05/09 00:07:36;;;;;;;0.40;0.40;;;;;;;;;;5099192;28;20201;-83
2023/05/09 00:10:02;;;;;;;0.50;0.50;;;;;;;;;;5097805;28;20195;-81
2023/05/09 00:12:28;;;;;;;0.50;0.50;;;;;;;;;;5088883;28;20190;-81
2023/05/09 00:14:55;;;;;;;0.50;0.50;;;;;;;;;;5073528;28;20256;-81
2023/05/09 00:17:22;;;;;;;0.50;0.50;;;;;;;;;;5073466;28;20312;-81
2023/05/09 00:19:48;;;;;;;0.50;0.50;;;;;;;;;;5073188;28;20186;-81
2023/05/09 00:22:15;;;;;;;0.40;0.40;;;;;;;;;;5073403;28;20162;-81
2023/05/09 00:24:42;;;;;;;0.57;0.57;;;;;;;;;;5073154;28;20225;-81
2023/05/09 00:27:09;;;;;;;0.50;0.50;;;;;;;;;;5073771;28;20568;-81
2023/05/09 00:29:35;;;;;;;0.60;0.60;;;;;;;;;;5073357;28;20226;-81
2023/05/09 00:32:01;;;;;;;0.50;0.50;;;;;;;;;;5073745;28;20240;-81
2023/05/09 00:34:27;;;;;;;0.50;0.50;;;;;;;;;;5072453;28;20210;-81
2023/05/09 00:36:53;;;;;;;0.40;0.40;;;;;;;;;;5073480;28;20186;-80
2023/05/09 00:39:19;;;;;;;0.47;0.47;;;;;;;;;;5073565;28;20511;-81
2023/05/09 00:41:45;;;;;;;0.40;0.40;;;;;;;;;;5073467;28;20232;-80
2023/05/09 00:44:11;;;;;;;0.50;0.50;;;;;;;;;;5072707;28;20198;-81
2023/05/09 00:46:38;;;;;;;0.47;0.47;;;;;;;;;;5073678;28;20179;-81
2023/05/09 00:49:04;;;;;;;0.50;0.50;;;;;;;;;;5073686;28;20217;-81
2023/05/09 00:51:31;;;;;;;0.40;0.40;;;;;;;;;;5073823;28;20178;-81
2023/05/09 00:53:57;;;;;;;0.30;0.30;;;;;;;;;;5072825;28;20344;-81
2023/05/09 00:56:23;;;;;;;0.57;0.57;;;;;;;;;;5073266;28;20577;-81
2023/05/09 00:58:49;;;;;;;0.50;0.50;;;;;;;;;;5074246;28;20178;-81
2023/05/09 01:01:15;;;;;;;0.43;0.43;;;;;;;;;;5074029;28;20202;-82
2023/05/09 01:03:41;;;;;;;0.60;0.60;;;;;;;;;;5073005;28;20194;-81
2023/05/09 01:06:20;;;;;;;0.50;0.50;;;;;;;;;;5073753;28;20174;-81
2023/05/09 01:08:52;;;;;;;0.50;0.50;;;;;;;;;;5073047;28;20213;-81
2023/05/09 01:11:24;;;;;;;0.50;0.50;;;;;;;;;;5073464;28;20175;-81
2023/05/09 01:14:03;;;;;;;0.70;0.70;;;;;;;;;;5073971;28;20198;-81
2023/05/09 01:16:29;;;;;;;0.43;0.43;;;;;;;;;;5074972;28;20182;-81
2023/05/09 01:19:07;;;;;;;0.37;0.37;;;;;;;;;;5075109;28;20166;-81
2023/05/09 01:21:35;;;;;;;0.50;0.50;;;;;;;;;;5074959;28;20673;-81
2023/05/09 01:24:20;;;;;;;0.37;0.37;;;;;;;;;;5073847;28;20682;-81
2023/05/09 01:26:52;;;;;;;0.50;0.50;;;;;;;;;;5074598;28;20181;-81
2023/05/09 01:29:21;;;;;;;0.60;0.60;;;;;;;;;;5074545;28;20214;-82
2023/05/09 01:31:50;;;;;;;0.50;0.50;;;;;;;;;;5074605;28;20170;-81
2023/05/09 01:34:17;;;;;;;0.60;0.60;;;;;;;;;;5074167;28;20198;-82
2023/05/09 01:36:44;;;;;;;0.50;0.50;;;;;;;;;;5074730;28;20178;-82
2023/05/09 01:39:13;;;;;;;0.40;0.40;;;;;;;;;;5074689;28;20183;-82
2023/05/09 01:41:39;;;;;;;0.50;0.50;;;;;;;;;;5074250;28;20191;-81
2023/05/09 01:44:07;;;;;;;0.50;0.50;;;;;;;;;;5073600;28;20224;-82
2023/05/09 01:46:34;;;;;;;0.50;0.50;;;;;;;;;;5078398;28;20265;-82
2023/05/09 01:49:01;;;;;;;0.50;0.50;;;;;;;;;;5078823;28;20210;-81
2023/05/09 01:51:28;;;;;;;0.50;0.50;;;;;;;;;;5078937;28;20177;-81
2023/05/09 01:53:56;;;;;;;0.50;0.50;;;;;;;;;;5078605;28;20233;-81
2023/05/09 01:56:23;;;;;;;0.50;0.50;;;;;;;;;;5079038;28;20205;-81
2023/05/09 01:58:50;;;;;;;0.40;0.40;;;;;;;;;;5079129;28;20177;-81
2023/05/09 02:01:17;;;;;;;0.60;0.60;;;;;;;;;;5079006;28;20179;-81
2023/05/09 02:03:44;;;;;;;0.40;0.40;;;;;;;;;;5078377;28;20560;-84
2023/05/09 02:06:11;;;;;;;0.50;0.50;;;;;;;;;;5079389;28;20182;-80
2023/05/09 02:08:37;;;;;;;0.40;0.40;;;;;;;;;;5079225;28;20221;-82
2023/05/09 02:11:03;;;;;;;0.50;0.50;;;;;;;;;;5078524;28;20262;-82
2023/05/09 02:13:29;;;;;;;0.50;0.50;;;;;;;;;;5078077;28;20202;-81
2023/05/09 02:15:56;;;;;;;0.50;0.50;;;;;;;;;;5079212;28;20171;-80
2023/05/09 02:18:22;;;;;;;0.50;0.50;;;;;;;;;;5078068;28;20175;-81
2023/05/09 02:20:48;;;;;;;0.40;0.40;;;;;;;;;;5078977;28;20189;-80
2023/05/09 02:23:14;;;;;;;0.50;0.50;;;;;;;;;;5085543;28;20189;-80
2023/05/09 02:25:40;;;;;;;0.50;0.50;;;;;;;;;;5091745;28;20175;-80
2023/05/09 02:28:07;;;;;;;0.43;0.43;;;;;;;;;;5084580;28;20190;-81
2023/05/09 02:30:36;;;;;;;0.50;0.50;;;;;;;;;;5084039;28;20178;-80
2023/05/09 02:33:04;;;;;;;0.40;0.40;;;;;;;;;;5084701;28;20641;-81
2023/05/09 02:35:30;;;;;;;0.53;0.53;;;;;;;;;;5084418;28;20198;-80
2023/05/09 02:37:57;;;;;;;0.40;0.40;;;;;;;;;;5084993;28;20763;-80
2023/05/09 02:40:24;;;;;;;0.43;0.43;;;;;;;;;;5084090;28;20592;-81
2023/05/09 02:42:50;;;;;;;0.50;0.50;;;;;;;;;;5085856;28;20189;-81
2023/05/09 02:45:16;;;;;;;0.60;0.60;;;;;;;;;;5100856;28;20186;-81
2023/05/09 02:47:42;;;;;;;0.40;0.40;;;;;;;;;;5101214;28;20167;-80
2023/05/09 02:50:08;;;;;;;0.53;0.53;;;;;;;;;;5100789;28;20194;-80
2023/05/09 02:52:34;;;;;;;0.40;0.40;;;;;;;;;;5095938;28;20220;-81
2023/05/09 02:55:00;;;;;;;0.50;0.50;;;;;;;;;;5075383;28;20318;-81
2023/05/09 02:57:26;;;;;;;0.50;0.50;;;;;;;;;;5075456;28;20657;-81
2023/05/09 02:59:52;;;;;;;0.50;0.50;;;;;;;;;;5076348;28;20175;-80
2023/05/09 03:02:18;;;;;;;0.50;0.50;;;;;;;;;;5080263;28;20174;-81
2023/05/09 03:04:44;;;;;;;0.47;0.47;;;;;;;;;;5081918;28;20198;-81
2023/05/09 03:07:10;;;;;;;0.60;0.60;;;;;;;;;;5081715;28;20219;-81
2023/05/09 03:09:36;;;;;;;0.33;0.33;;;;;;;;;;5086400;28;20224;-81
2023/05/09 03:12:02;;;;;;;0.60;0.60;;;;;;;;;;5084053;28;20217;-82
2023/05/09 03:14:28;;;;;;;0.47;0.47;;;;;;;;;;5078532;28;20236;-82
2023/05/09 03:16:54;;;;;;;0.50;0.50;;;;;;;;;;5078491;28;20179;-81
2023/05/09 03:19:20;;;;;;;0.60;0.60;;;;;;;;;;5078959;28;20166;-82
2023/05/09 03:21:46;;;;;;;0.50;0.50;;;;;;;;;;5078395;28;20174;-81
2023/05/09 03:24:12;;;;;;;0.40;0.40;;;;;;;;;;5078308;28;20195;-82
2023/05/09 03:26:38;;;;;;;0.50;0.50;;;;;;;;;;5078003;28;20204;-82
2023/05/09 03:29:04;;;;;;;0.50;0.50;;;;;;;;;;5078018;28;20218;-81
2023/05/09 03:31:30;;;;;;;0.50;0.50;;;;;;;;;;5078727;28;20170;-81
2023/05/09 03:33:56;;;;;;;0.50;0.50;;;;;;;;;;5078079;28;20202;-82
2023/05/09 03:36:22;;;;;;;0.50;0.50;;;;;;;;;;5078439;28;20660;-83
2023/05/09 03:38:48;;;;;;;0.50;0.50;;;;;;;;;;5078420;28;20174;-82
2023/05/09 03:41:15;;;;;;;0.50;0.50;;;;;;;;;;5078029;28;20174;-81
2023/05/09 03:43:41;;;;;;;0.50;0.50;;;;;;;;;;5077308;28;20225;-82
2023/05/09 03:46:08;;;;;;;0.40;0.40;;;;;;;;;;5077518;28;20174;-81
2023/05/09 03:48:34;;;;;;;0.50;0.50;;;;;;;;;;5077914;28;20844;-81
2023/05/09 03:51:01;;;;;;;0.40;0.40;;;;;;;;;;5077685;28;20182;-82
2023/05/09 03:53:27;;;;;;;0.50;0.50;;;;;;;;;;5077325;28;20179;-81
2023/05/09 03:55:53;;;;;;;0.50;0.50;;;;;;;;;;5077640;28;20179;-81
2023/05/09 03:58:19;;;;;;;0.50;0.50;;;;;;;;;;5076624;28;20232;-81
2023/05/09 04:00:45;;;;;;;0.40;0.40;;;;;;;;;;5077340;28;20167;-81
2023/05/09 04:03:11;;;;;;;0.40;0.40;;;;;;;;;;5076873;28;20177;-82
2023/05/09 04:05:37;;;;;;;0.57;0.57;;;;;;;;;;5076826;28;20194;-80
2023/05/09 04:08:04;;;;;;;0.50;0.50;;;;;;;;;;5075950;28;20182;-80
2023/05/09 04:10:31;;;;;;;0.50;0.50;;;;;;;;;;5076531;28;20673;-82
2023/05/09 04:12:57;;;;;;;0.60;0.60;;;;;;;;;;5076599;28;20201;-81
2023/05/09 04:15:23;;;;;;;0.50;0.50;;;;;;;;;;5074870;28;20633;-80
2023/05/09 04:17:49;;;;;;;0.60;0.60;;;;;;;;;;5075577;28;20178;-81
2023/05/09 04:20:15;;;;;;;0.50;0.50;;;;;;;;;;5076235;28;20175;-80
2023/05/09 04:22:41;;;;;;;0.50;0.50;;;;;;;;;;5076365;28;20201;-80
2023/05/09 04:25:11;;;;;;;0.40;0.40;;;;;;;;;;5076512;28;20568;-82
2023/05/09 04:27:37;;;;;;;0.40;0.40;;;;;;;;;;5077167;28;20181;-81
2023/05/09 04:30:03;;;;;;;0.60;0.60;;;;;;;;;;5076541;28;20214;-81
2023/05/09 04:32:29;;;;;;;0.50;0.50;;;;;;;;;;5076147;28;20189;-81
2023/05/09 04:34:55;;;;;;;0.40;0.40;;;;;;;;;;5076699;28;20198;-81
2023/05/09 04:37:21;;;;;;;0.47;0.47;;;;;;;;;;5076565;28;20192;-80
2023/05/09 04:39:47;;;;;;;0.40;0.40;;;;;;;;;;5076683;28;20228;-81
2023/05/09 04:42:13;;;;;;;0.50;0.50;;;;;;;;;;5075798;28;20611;-82
2023/05/09 04:44:39;;;;;;;0.60;0.60;;;;;;;;;;5076055;28;20206;-80
2023/05/09 04:47:05;;;;;;;0.40;0.40;;;;;;;;;;5076935;28;20179;-81
2023/05/09 04:49:31;;;;;;;0.50;0.50;;;;;;;;;;5093106;28;20241;-81
2023/05/09 04:51:57;;;;;;;0.40;0.40;;;;;;;;;;5097403;28;20254;-81
2023/05/09 04:54:23;;;;;;;0.50;0.50;;;;;;;;;;5096922;28;20345;-82
2023/05/09 04:56:49;;;;;;;0.40;0.40;;;;;;;;;;5097691;28;20200;-83
2023/05/09 04:59:15;;;;;;;0.50;0.50;;;;;;;;;;5097351;28;20180;-81
2023/05/09 05:01:41;;;;;;;0.40;0.40;;;;;;;;;;5097304;28;20158;-82
2023/05/09 05:04:07;;;;;;;0.47;0.47;;;;;;;;;;5093418;28;20209;-82
2023/05/09 05:06:33;;;;;;;0.50;0.50;;;;;;;;;;5083335;28;20175;-82
2023/05/09 05:08:59;;;;;;;0.50;0.50;;;;;;;;;;5081424;28;20206;-82
2023/05/09 05:11:25;;;;;;;0.50;0.50;;;;;;;;;;5081552;28;20189;-83
2023/05/09 05:13:51;;;;;;;0.43;0.43;;;;;;;;;;5087083;28;20193;-83
2023/05/09 05:16:17;;;;;;;0.43;0.43;;;;;;;;;;5096932;28;20589;-83
2023/05/09 05:18:43;;;;;;;0.50;0.50;;;;;;;;;;5097858;28;20185;-82
2023/05/09 05:21:09;;;;;;;0.40;0.40;;;;;;;;;;5099791;28;20174;-82
2023/05/09 05:23:35;;;;;;;0.50;0.50;;;;;;;;;;5099217;28;20190;-84
2023/05/09 05:26:01;;;;;;;0.50;0.50;;;;;;;;;;5098165;28;20196;-83
2023/05/09 05:28:27;;;;;;;0.47;0.47;;;;;;;;;;5100695;28;20737;-83
2023/05/09 05:30:54;;;;;;;0.47;0.47;;;;;;;;;;5100411;28;20201;-83
2023/05/09 05:33:20;;;;;;;0.60;0.60;;;;;;;;;;5098720;28;20184;-82
2023/05/09 05:35:46;;;;;;;0.50;0.50;;;;;;;;;;5099793;28;20256;-83
2023/05/09 05:38:12;;;;;;;0.40;0.40;;;;;;;;;;5105012;28;20204;-81
2023/05/09 05:40:38;;;;;;;0.50;0.50;;;;;;;;;;5097742;28;20340;-81
2023/05/09 05:43:04;;;;;;;0.50;0.50;;;;;;;;;;5084949;28;20214;-80
2023/05/09 05:45:30;;;;;;;0.50;0.50;;;;;;;;;;5095641;28;20190;-81
2023/05/09 05:47:56;;;;;;;0.43;0.43;;;;;;;;;;5109684;28;20204;-82
2023/05/09 05:50:22;;;;;;;0.50;0.50;;;;;;;;;;5118165;28;20193;-82
2023/05/09 05:52:48;;;;;;;0.43;0.43;;;;;;;;;;5117845;28;20248;-82
2023/05/09 05:55:14;;;;;;;0.40;0.40;;;;;;;;;;5117738;28;20182;-81
2023/05/09 05:57:40;;;;;;;0.37;0.37;;;;;;;;;;5118172;28;20158;-84
2023/05/09 06:00:09;;;;;;;0.70;0.70;;;;;;;;;;5118260;28;20237;-85
2023/05/09 06:02:35;;;;;;;0.40;0.40;;;;;;;;;;5116935;28;20150;-84
2023/05/09 06:05:02;;;;;;;0.30;0.30;;;;;;;;;;5117450;28;20206;-84
2023/05/09 06:07:28;;;;;;;0.40;0.40;;;;;;;;;;5116824;28;20157;-83
2023/05/09 06:09:54;;;;;;;0.33;0.33;;;;;;;;;;5099991;28;20709;-81
2023/05/09 06:12:20;;;;;;;0.50;0.50;;;;;;;;;;5091681;28;20185;-82
2023/05/09 06:14:46;;;;;;;0.40;0.40;;;;;;;;;;5090362;28;20193;-81
2023/05/09 06:17:12;;;;;;;0.43;0.43;;;;;;;;;;5091179;28;20227;-81
2023/05/09 06:19:38;;;;;;;0.40;0.40;;;;;;;;;;5094041;28;20174;-80
2023/05/09 06:22:04;;;;;;;0.53;0.53;;;;;;;;;;5094832;28;20231;-81
2023/05/09 06:24:30;;;;;;;0.40;0.40;;;;;;;;;;5094636;28;20198;-82
2023/05/09 06:26:56;;;;;;;0.40;0.40;;;;;;;;;;5095021;28;20181;-81
2023/05/09 06:29:22;;;;;;;0.50;0.50;;;;;;;;;;5095701;28;20246;-82
2023/05/09 06:31:48;;;;;;;0.40;0.40;;;;;;;;;;5097360;28;20700;-83
2023/05/09 06:34:14;;;;;;;0.50;0.50;;;;;;;;;;5086621;28;20255;-83
2023/05/09 06:36:40;;;;;;;0.40;0.40;;;;;;;;;;5091887;28;20178;-83
2023/05/09 06:39:06;;;;;;;0.50;0.50;;;;;;;;;;5095895;28;20652;-83
2023/05/09 06:41:32;;;;;;;0.40;0.40;;;;;;;;;;5084752;28;20178;-85
2023/05/09 06:43:58;;;;;;;0.40;0.40;;;;;;;;;;5087441;28;20289;-82
2023/05/09 06:46:25;;;;;;;0.40;0.40;;;;;;;;;;5087434;28;20194;-83
2023/05/09 06:48:51;;;;;;;0.40;0.40;;;;;;;;;;5092044;28;20259;-83
2023/05/09 06:51:17;;;;;;;0.40;0.40;;;;;;;;;;5091720;28;20192;-83
2023/05/09 06:53:43;;;;;;;0.40;0.40;;;;;;;;;;5101386;28;20273;-83
2023/05/09 06:56:09;;;;;;;0.40;0.40;;;;;;;;;;5114670;28;20331;-85
2023/05/09 06:58:35;;;;;;;0.33;0.33;;;;;;;;;;5120240;28;20178;-85
2023/05/09 07:01:01;;;;;;;0.50;0.50;;;;;;;;;;5107361;28;20174;-82
2023/05/09 07:03:27;;;;;;;0.40;0.40;;;;;;;;;;5099833;28;20174;-84
2023/05/09 07:05:55;;;;;;;0.43;0.43;;;;;;;;;;5097014;28;20173;-86
2023/05/09 07:08:21;;;;;;;0.40;0.40;;;;;;;;;;5095280;28;20248;-85
2023/05/09 07:10:47;;;;;;;0.40;0.40;;;;;;;;;;5095014;28;20281;-85
2023/05/09 07:13:13;;;;;;;0.30;0.30;;;;;;;;;;5097569;28;20178;-85
2023/05/09 07:15:39;;;;;;;0.40;0.40;;;;;;;;;;5096784;28;20244;-84
2023/05/09 07:18:05;;;;;;;0.40;0.40;;;;;;;;;;5097132;28;20625;-84
2023/05/09 07:20:31;;;;;;;0.30;0.30;;;;;;;;;;5096383;28;20200;-85
2023/05/09 07:22:57;;;;;;;0.40;0.40;;;;;;;;;;5097172;28;20184;-84
2023/05/09 07:25:23;;;;;;;0.40;0.40;;;;;;;;;;5095773;28;20206;-85
2023/05/09 07:27:49;;;;;;;0.40;0.40;;;;;;;;;;5095256;28;20194;-84
2023/05/09 07:30:15;;;;;;;0.30;0.30;;;;;;;;;;5095759;28;20358;-85
2023/05/09 07:32:41;;;;;;;0.37;0.37;;;;;;;;;;5094816;28;20169;-85
2023/05/09 07:35:07;;;;;;;0.30;0.30;;;;;;;;;;5095374;28;20605;-84
2023/05/09 07:37:33;;;;;;;0.30;0.30;;;;;;;;;;5091456;28;20174;-84
2023/05/09 07:40:00;;;;;;;0.30;0.30;;;;;;;;;;5089130;28;20233;-86
2023/05/09 07:42:26;;;;;;;0.43;0.43;;;;;;;;;;5093887;28;20629;-85
2023/05/09 07:44:52;;;;;;;0.40;0.40;;;;;;;;;;5095965;28;20194;-85
2023/05/09 07:47:18;;;;;;;0.50;0.50;;;;;;;;;;5096115;28;20523;-85
2023/05/09 07:49:45;;;;;;;0.50;0.50;;;;;;;;;;5094896;28;20240;-85
2023/05/09 07:52:11;;;;;;;0.30;0.30;;;;;;;;;;5090649;28;20170;-85
2023/05/09 07:54:37;;;;;;;0.50;0.50;;;;;;;;;;5086247;28;20186;-84
2023/05/09 07:57:03;;;;;;;0.40;0.40;;;;;;;;;;5092867;28;20192;-84
2023/05/09 07:59:29;;;;;;;0.33;0.33;;;;;;;;;;5091320;28;20178;-85
2023/05/09 08:01:55;;;;;;;0.30;0.30;;;;;;;;;;5089771;28;20174;-86
2023/05/09 08:04:21;;;;;;;0.50;0.50;;;;;;;;;;5084094;28;20608;-83
2023/05/09 08:06:47;;;;;;;0.40;0.40;;;;;;;;;;5075500;28;20230;-83
2023/05/09 08:09:13;;;;;;;0.53;0.53;;;;;;;;;;5076435;28;20259;-83
2023/05/09 08:11:39;;;;;;;0.40;0.40;;;;;;;;;;5075951;28;20277;-84
2023/05/09 08:14:05;;;;;;;0.50;0.50;;;;;;;;;;5075945;28;20289;-83
2023/05/09 08:16:31;;;;;;;0.50;0.50;;;;;;;;;;5075452;28;20189;-84
2023/05/09 08:18:57;;;;;;;0.53;0.53;;;;;;;;;;5079962;28;20174;-85
2023/05/09 08:21:23;;;;;;;0.60;0.60;;;;;;;;;;5096041;28;20203;-82
2023/05/09 08:23:49;;;;;;;0.60;0.60;;;;;;;;;;5095967;28;20205;-83
2023/05/09 08:26:15;;;;;;;0.40;0.40;;;;;;;;;;5095612;28;20628;-84
2023/05/09 08:28:41;;;;;;;0.60;0.60;;;;;;;;;;5095252;28;20209;-83
2023/05/09 08:31:07;;;;;;;0.70;0.70;;;;;;;;;;5095022;28;20219;-83
2023/05/09 08:33:33;;;;;;;0.40;0.40;;;;;;;;;;5096136;28;20185;-83
2023/05/09 08:35:59;;;;;;;0.30;0.30;;;;;;;;;;5096215;28;20178;-83
2023/05/09 08:38:25;;;;;;;0.43;0.43;;;;;;;;;;5096294;28;20548;-84
2023/05/09 08:40:51;;;;;;;0.50;0.50;;;;;;;;;;5095125;28;20187;-84
2023/05/09 08:43:19;;;;;;;0.50;0.50;;;;;;;;;;5093412;28;20636;-85
2023/05/09 08:45:47;;;;;;;0.50;0.50;;;;;;;;;;5093988;28;20170;-83
2023/05/09 08:48:16;;;;;;;0.40;0.40;;;;;;;;;;5092144;28;20222;-84
2023/05/09 08:50:42;;;;;;;0.40;0.40;;;;;;;;;;5089045;28;20242;-83
2023/05/09 08:53:08;;;;;;;0.37;0.37;;;;;;;;;;5087285;28;20198;-84
2023/05/09 08:55:34;;;;;;;0.40;0.40;;;;;;;;;;5089148;28;20724;-84
2023/05/09 08:58:00;;;;;;;0.40;0.40;;;;;;;;;;5088536;28;20629;-85
2023/05/09 09:00:27;;;;;;;0.43;0.43;;;;;;;;;;5095690;28;20230;-85
2023/05/09 09:02:53;;;;;;;0.43;0.43;;;;;;;;;;5090959;28;20179;-85
2023/05/09 09:05:19;;;;;;;0.50;0.50;;;;;;;;;;5087984;28;20768;-83
2023/05/09 09:07:46;;;;;;;0.50;0.50;;;;;;;;;;5082615;28;20661;-84
2023/05/09 09:10:12;;;;;;;0.37;0.37;;;;;;;;;;5091841;28;20270;-85
2023/05/09 09:12:39;;;;;;;0.43;0.43;;;;;;;;;;5091230;28;20227;-84
2023/05/09 09:15:06;;;;;;;0.50;0.50;;;;;;;;;;5084960;28;20194;-84
2023/05/09 09:17:33;;;;;;;0.50;0.50;;;;;;;;;;5089169;28;20174;-83
2023/05/09 09:20:00;;;;;;;0.50;0.50;;;;;;;;;;5094030;28;20205;-84
2023/05/09 09:22:32;;;;;;;0.40;0.40;;;;;;;;;;5092707;28;20177;-85
2023/05/09 09:24:59;;;;;;;0.33;0.33;;;;;;;;;;5083509;28;20217;-85
2023/05/09 09:27:25;;;;;;;0.40;0.40;;;;;;;;;;5072674;28;20178;-85
2023/05/09 09:29:51;;;;;;;0.30;0.30;;;;;;;;;;5078137;28;20559;-85
2023/05/09 09:32:18;;;;;;;0.50;0.50;;;;;;;;;;5092608;28;20174;-85
2023/05/09 09:34:44;;;;;;;0.33;0.33;;;;;;;;;;5093566;28;20229;-84
2023/05/09 09:37:20;;;;;;;0.30;0.30;;;;;;;;;;5091412;28;20634;-84
2023/05/09 09:39:53;;;;;;;0.40;0.40;;;;;;;;;;5092292;28;20178;-83
2023/05/09 09:42:20;;;;;;;0.50;0.50;;;;;;;;;;5094207;28;20178;-84
2023/05/09 09:44:50;;;;;;;0.40;0.40;;;;;;;;;;5088877;28;20197;-84
2023/05/09 09:47:16;;;;;;;0.43;0.43;;;;;;;;;;5094472;28;20204;-84
2023/05/09 09:49:46;;;;;;;0.30;0.30;;;;;;;;;;5093078;28;20229;-83
2023/05/09 09:52:22;;;;;;;0.40;0.40;;;;;;;;;;5084836;28;20569;-82
2023/05/09 09:54:48;;;;;;;0.50;0.50;;;;;;;;;;5084622;28;20194;-83
2023/05/09 09:57:33;;;;;;;0.40;0.40;;;;;;;;;;5085607;28;20224;-83
2023/05/09 09:59:58;;;;;;;0.20;0.20;;;;;;;;;;5083762;28;20178;-83
2023/05/09 10:02:25;;;;;;;0.30;0.30;;;;;;;;;;5085817;28;20185;-84
2023/05/09 10:04:51;;;;;;;0.50;0.50;;;;;;;;;;5085405;28;20186;-83
2023/05/09 10:07:19;;;;;;;0.30;0.30;;;;;;;;;;5087100;28;20170;-83
2023/05/09 10:09:47;;;;;;;0.37;0.37;;;;;;;;;;5084411;28;20221;-84
2023/05/09 10:12:16;;;;;;;0.50;0.50;;;;;;;;;;5091658;28;20267;-85
2023/05/09 10:14:43;;;;;;;0.30;0.30;;;;;;;;;;5096788;28;20202;-83
2023/05/09 10:17:11;;;;;;;0.30;0.30;;;;;;;;;;5097504;28;20169;-85
2023/05/09 10:19:37;;;;;;;0.40;0.40;;;;;;;;;;5099357;28;20177;-84
2023/05/09 10:22:05;;;;;;;0.27;0.27;;;;;;;;;;5099391;28;20193;-84
2023/05/09 10:24:37;;;;;;;0.40;0.40;;;;;;;;;;5097853;28;20221;-84
2023/05/09 10:27:06;;;;;;;0.40;0.40;;;;;;;;;;5101856;28;20181;-83
2023/05/09 10:29:37;;;;;;;0.33;0.33;;;;;;;;;;5100545;28;20217;-84
2023/05/09 10:32:26;;;;;;;0.30;0.30;;;;;;;;;;5101683;28;20219;-88
2023/05/09 10:34:54;;;;;;;0.40;0.40;;;;;;;;;;5089449;28;20585;-86
2023/05/09 10:37:21;;;;;;;0.20;0.20;;;;;;;;;;5097334;28;20182;-82
2023/05/09 10:39:51;;;;;;;0.40;0.40;;;;;;;;;;5100359;28;20227;-84
2023/05/09 10:42:18;;;;;;;0.30;0.30;;;;;;;;;;5100807;28;20188;-82
2023/05/09 10:44:44;;;;;;;0.43;0.43;;;;;;;;;;5102132;28;20197;-84
2023/05/09 10:47:12;;;;;;;0.50;0.50;;;;;;;;;;5101310;28;20209;-85
2023/05/09 10:49:38;;;;;;;0.40;0.40;;;;;;;;;;5100712;28;20208;-87
2023/05/09 10:52:04;;;;;;;0.60;0.60;;;;;;;;;;5098182;28;20209;-84
2023/05/09 10:54:32;;;;;;;0.40;0.40;;;;;;;;;;5101272;28;20205;-84
2023/05/09 10:56:58;;;;;;;0.47;0.47;;;;;;;;;;5105709;28;20224;-84
2023/05/09 10:59:34;;;;;;;0.43;0.43;;;;;;;;;;5104904;28;20182;-84
2023/05/09 11:02:02;;;;;;;0.40;0.40;;;;;;;;;;5115728;28;20212;-84
2023/05/09 11:04:28;;;;;;;0.40;0.40;;;;;;;;;;5119712;28;20258;-85
2023/05/09 11:06:55;;;;;;;0.50;0.50;;;;;;;;;;5113269;28;20210;-86
2023/05/09 11:09:27;;;;;;;0.40;0.40;;;;;;;;;;5098702;28;20217;-86
2023/05/09 11:12:12;;;;;;;0.30;0.30;;;;;;;;;;5098512;28;20178;-86
2023/05/09 11:14:43;;;;;;;0.30;0.30;;;;;;;;;;5099686;28;20198;-86
2023/05/09 11:17:13;;;;;;;0.40;0.40;;;;;;;;;;5100731;28;20215;-84
2023/05/09 11:19:44;;;;;;;0.50;0.50;;;;;;;;;;5098023;28;20182;-84
2023/05/09 11:22:14;;;;;;;0.40;0.40;;;;;;;;;;5101978;28;20261;-83
2023/05/09 11:24:45;;;;;;;0.50;0.50;;;;;;;;;;5097491;28;20236;-85
2023/05/09 11:27:29;;;;;;;0.30;0.30;;;;;;;;;;5098000;28;20177;-81
2023/05/09 11:29:56;;;;;;;0.40;0.40;;;;;;;;;;5099829;28;20244;-82
2023/05/09 11:32:26;;;;;;;0.40;0.40;;;;;;;;;;5101121;28;20691;-83
2023/05/09 11:35:04;;;;;;;0.40;0.40;;;;;;;;;;5097533;28;20217;-83
2023/05/09 11:37:31;;;;;;;0.40;0.40;;;;;;;;;;5098379;28;20244;-83
2023/05/09 11:40:03;;;;;;;0.40;0.40;;;;;;;;;;5098086;28;20227;-83
2023/05/09 11:42:29;;;;;;;0.33;0.33;;;;;;;;;;5087773;28;20645;-82
2023/05/09 11:44:56;;;;;;;0.40;0.40;;;;;;;;;;5082144;28;20191;-83
2023/05/09 11:47:22;;;;;;;0.60;0.60;;;;;;;;;;5077257;28;20194;-82
2023/05/09 11:49:48;;;;;;;0.50;0.50;;;;;;;;;;5076843;28;20206;-83
2023/05/09 11:52:15;;;;;;;0.53;0.53;;;;;;;;;;5080750;28;20174;-86
2023/05/09 11:54:41;;;;;;;0.30;0.30;;;;;;;;;;5083199;28;20195;-84
2023/05/09 11:57:07;;;;;;;0.50;0.50;;;;;;;;;;5081400;28;20185;-87
2023/05/09 11:59:33;;;;;;;0.40;0.40;;;;;;;;;;5094959;28;20249;-84
2023/05/09 12:02:04;;;;;;;0.30;0.30;;;;;;;;;;5088403;28;20228;-83
2023/05/09 12:04:33;;;;;;;0.47;0.47;;;;;;;;;;5077632;28;20297;-85
2023/05/09 12:06:59;;;;;;;0.40;0.40;;;;;;;;;;5075901;28;20182;-85
2023/05/09 12:09:30;;;;;;;0.30;0.30;;;;;;;;;;5085538;28;20217;-84
2023/05/09 12:11:56;;;;;;;0.30;0.30;;;;;;;;;;5085689;28;20274;-85
2023/05/09 12:14:26;;;;;;;0.40;0.40;;;;;;;;;;5082482;28;20340;-85
2023/05/09 12:16:52;;;;;;;0.27;0.27;;;;;;;;;;5086743;28;20186;-85
2023/05/09 12:19:18;;;;;;;0.47;0.47;;;;;;;;;;5088052;28;20172;-84
2023/05/09 12:21:44;;;;;;;0.40;0.40;;;;;;;;;;5104942;28;20181;-86
2023/05/09 12:24:10;;;;;;;0.40;0.40;;;;;;;;;;5085187;28;20193;-86
2023/05/09 12:26:36;;;;;;;0.40;0.40;;;;;;;;;;5090301;28;20309;-85
2023/05/09 12:29:02;;;;;;;0.50;0.50;;;;;;;;;;5081603;28;20313;-85
2023/05/09 12:31:28;;;;;;;0.40;0.40;;;;;;;;;;5091164;28;20185;-85
2023/05/09 12:33:54;;;;;;;0.40;0.40;;;;;;;;;;5080848;28;20198;-88
2023/05/09 12:36:20;;;;;;;0.40;0.40;;;;;;;;;;5083083;28;20525;-85
2023/05/09 12:38:56;;;;;;;0.50;0.50;;;;;;;;;;5085142;28;20174;-87
2023/05/09 12:41:23;;;;;;;0.40;0.40;;;;;;;;;;5089906;28;20204;-85
2023/05/09 12:43:49;;;;;;;0.50;0.50;;;;;;;;;;5096671;28;20193;-83
2023/05/09 12:46:19;;;;;;;0.50;0.50;;;;;;;;;;5098598;28;20268;-84
2023/05/09 12:48:46;;;;;;;0.50;0.50;;;;;;;;;;5099117;28;20178;-84
2023/05/09 12:51:12;;;;;;;0.40;0.40;;;;;;;;;;5097850;28;20189;-85
2023/05/09 12:53:39;;;;;;;0.30;0.30;;;;;;;;;;5096895;28;20227;-85
2023/05/09 12:56:16;;;;;;;0.40;0.40;;;;;;;;;;5097403;28;20224;-85
2023/05/09 12:58:52;;;;;;;0.43;0.43;;;;;;;;;;5097115;28;20173;-86
2023/05/09 13:01:24;;;;;;;0.40;0.40;;;;;;;;;;5097532;28;20177;-85
2023/05/09 13:03:51;;;;;;;0.60;0.60;;;;;;;;;;5095130;28;20193;-86
2023/05/09 13:06:17;;;;;;;0.40;0.40;;;;;;;;;;5085898;28;20178;-85
2023/05/09 13:08:45;;;;;;;0.50;0.50;;;;;;;;;;5088498;28;20189;-84
2023/05/09 13:11:15;;;;;;;0.40;0.40;;;;;;;;;;5096132;28;20178;-84
2023/05/09 13:13:41;;;;;;;0.40;0.40;;;;;;;;;;5082507;28;20201;-86
2023/05/09 13:16:07;;;;;;;0.40;0.40;;;;;;;;;;5091405;28;20549;-84
2023/05/09 13:18:34;;;;;;;0.40;0.40;;;;;;;;;;5093166;28;20551;-82
2023/05/09 13:21:00;;;;;;;0.33;0.33;;;;;;;;;;5086063;28;20940;-84
2023/05/09 13:23:26;;;;;;;0.50;0.50;;;;;;;;;;5095834;28;20185;-84
2023/05/09 13:25:52;;;;;;;0.60;0.60;;;;;;;;;;5091358;28;20216;-83
2023/05/09 13:28:18;;;;;;;0.47;0.47;;;;;;;;;;5099710;28;20238;-84
2023/05/09 13:30:44;;;;;;;0.40;0.40;;;;;;;;;;5095568;28;20312;-84
2023/05/09 13:33:10;;;;;;;0.50;0.50;;;;;;;;;;5082681;28;20190;-85
2023/05/09 13:35:36;;;;;;;0.40;0.40;;;;;;;;;;5086656;28;20201;-83
2023/05/09 13:38:02;;;;;;;0.40;0.40;;;;;;;;;;5099531;28;20196;-85
2023/05/09 13:40:28;;;;;;;0.50;0.50;;;;;;;;;;5091383;28;20499;-83
2023/05/09 13:45:34;;;;;;;0.50;0.50;;;;;;;;;;5047297;22;20241;-82
2023/05/09 13:48:00;;;;;;;0.60;0.60;;;;;;;;;;5027805;28;20263;-82
2023/05/09 13:50:26;;;;;;;0.60;0.60;;;;;;;;;;5019082;28;20210;-81
2023/05/09 13:52:52;;;;;;;0.43;0.43;;;;;;;;;;5013850;28;20184;-80
2023/05/09 13:55:18;;;;;;;0.40;0.40;;;;;;;;;;5016788;28;20200;-83
2023/05/09 13:57:44;;;;;;;0.50;0.50;;;;;;;;;;5023438;28;20180;-81
2023/05/09 14:00:10;;;;;;;0.40;0.40;;;;;;;;;;5030286;28;20187;-81
2023/05/09 14:02:36;;;;;;;0.40;0.40;;;;;;;;;;5029687;28;20199;-80
2023/05/09 14:05:03;;;;;;;0.40;0.40;;;;;;;;;;5030964;28;20361;-79
2023/05/09 14:07:29;;;;;;;0.60;0.60;;;;;;;;;;5034191;28;20632;-80
2023/05/09 14:09:56;;;;;;;0.50;0.50;;;;;;;;;;5026094;28;20230;-80
2023/05/09 14:12:22;;;;;;;0.43;0.43;;;;;;;;;;5042724;28;20199;-79
2023/05/09 14:14:48;;;;;;;0.50;0.50;;;;;;;;;;5044113;28;20196;-81
2023/05/09 14:17:14;;;;;;;0.40;0.40;;;;;;;;;;5038438;28;20246;-80
2023/05/09 14:19:40;;;;;;;0.40;0.40;;;;;;;;;;5043945;28;20168;-79
2023/05/09 14:22:06;;;;;;;0.40;0.40;;;;;;;;;;5034811;28;20191;-79
2023/05/09 14:24:32;;;;;;;0.37;0.37;;;;;;;;;;5038095;28;20197;-78
2023/05/09 14:26:58;;;;;;;0.50;0.50;;;;;;;;;;5031504;28;20180;-78
2023/05/09 14:29:24;;;;;;;0.30;0.30;;;;;;;;;;5041343;28;20204;-79
2023/05/09 14:31:50;;;;;;;0.30;0.30;;;;;;;;;;5045223;28;20247;-79
2023/05/09 14:34:16;;;;;;;0.50;0.50;;;;;;;;;;5032324;28;20219;-81
2023/05/09 14:36:42;;;;;;;0.40;0.40;;;;;;;;;;5016623;28;20180;-81
2023/05/09 14:39:08;;;;;;;0.53;0.53;;;;;;;;;;5030747;28;20739;-82
2023/05/09 14:41:34;;;;;;;0.33;0.33;;;;;;;;;;4998094;28;20173;-82
2023/05/09 14:44:00;;;;;;;0.40;0.40;;;;;;;;;;5014690;28;20617;-80